createdAt,value
2022-08-03T00:00:33.329Z,74.46
2022-08-03T00:03:04.850Z,74.40
2022-08-03T00:05:33.833Z,74.29
2022-08-03T00:08:01.903Z,74.50
2022-08-03T00:10:30.399Z,74.31
2022-08-03T00:12:58.307Z,74.47
2022-08-03T00:15:26.422Z,74.50
2022-08-03T00:17:54.420Z,74.56
2022-08-03T00:20:22.701Z,74.60
2022-08-03T00:22:50.923Z,74.81
2022-08-03T00:25:19.811Z,74.81
2022-08-03T00:27:48.330Z,74.94
2022-08-03T00:30:16.883Z,74.97
2022-08-03T00:32:45.612Z,74.85
2022-08-03T00:35:32.517Z,74.78
2022-08-03T00:38:01.776Z,74.92
2022-08-03T00:40:29.920Z,74.87
2022-08-03T00:43:03.840Z,74.75
2022-08-03T00:45:36.114Z,74.84
2022-08-03T00:48:06.114Z,74.92
2022-08-03T00:50:48.449Z,74.94
2022-08-03T00:53:20.085Z,74.79
2022-08-03T00:55:48.048Z,74.84
2022-08-03T00:58:16.314Z,74.99
2022-08-03T01:00:44.259Z,75.15
2022-08-03T01:03:12.285Z,75.20
2022-08-03T01:05:52.521Z,75.26
2022-08-03T01:08:32.157Z,75.40
2022-08-03T01:11:11.838Z,75.53
2022-08-03T01:14:04.597Z,75.27
2022-08-03T01:16:54.245Z,75.37
2022-08-03T01:19:46.043Z,75.45
2022-08-03T01:22:35.630Z,75.26
2022-08-03T01:25:20.018Z,75.29
2022-08-03T01:27:56.963Z,75.25
2022-08-03T01:30:31.780Z,75.24
2022-08-03T01:33:05.352Z,75.45
2022-08-03T01:35:42.372Z,75.30
2022-08-03T01:38:27.706Z,75.27
2022-08-03T01:40:56.912Z,75.26
2022-08-03T01:44:27.211Z,75.44
2022-08-03T01:46:20.710Z,75.29
2022-08-03T01:48:49.814Z,75.56
2022-08-03T01:51:20.195Z,75.61
2022-08-03T01:53:51.295Z,75.56
2022-08-03T01:56:20.418Z,75.74
2022-08-03T01:58:50.898Z,75.76
2022-08-03T02:01:21.747Z,76.03
2022-08-03T02:03:56.650Z,75.91
2022-08-03T02:06:32.944Z,75.97
2022-08-03T02:09:23.741Z,75.80
2022-08-03T02:11:53.415Z,75.80
2022-08-03T02:14:23.258Z,75.77
2022-08-03T02:16:52.009Z,75.84
2022-08-03T02:19:20.223Z,75.95
2022-08-03T02:21:57.431Z,75.82
2022-08-03T02:24:31.515Z,76.01
2022-08-03T02:27:01.371Z,75.93
2022-08-03T02:29:39.418Z,76.11
2022-08-03T02:32:17.647Z,76.00
2022-08-03T02:34:50.509Z,75.95
2022-08-03T02:37:20.182Z,75.86
2022-08-03T02:39:52.265Z,75.98
2022-08-03T02:42:23.366Z,75.89
2022-08-03T02:44:55.546Z,76.07
2022-08-03T02:47:27.350Z,76.06
2022-08-03T02:49:59.225Z,76.09
2022-08-03T02:52:30.080Z,76.22
2022-08-03T02:55:02.506Z,76.35
2022-08-03T02:57:32.006Z,76.27
2022-08-03T03:00:00.352Z,76.31
2022-08-03T03:02:29.396Z,76.27
2022-08-03T03:05:55.201Z,76.44
2022-08-03T03:07:51.906Z,76.39
2022-08-03T03:10:26.031Z,76.38
2022-08-03T03:12:58.024Z,76.43
2022-08-03T03:15:28.017Z,76.41
2022-08-03T03:17:57.467Z,76.44
2022-08-03T03:20:29.358Z,76.61
2022-08-03T03:23:00.744Z,76.81
2022-08-03T03:25:32.158Z,76.70
2022-08-03T03:28:02.037Z,76.91
2022-08-03T03:30:30.290Z,76.97
2022-08-03T03:32:58.865Z,77.00
2022-08-03T03:35:28.034Z,77.14
2022-08-03T03:37:56.751Z,77.35
2022-08-03T03:40:25.247Z,77.32
2022-08-03T03:42:53.260Z,77.57
2022-08-03T03:45:22.159Z,77.65
2022-08-03T03:47:50.430Z,77.70
2022-08-03T03:50:19.155Z,77.86
2022-08-03T03:52:47.031Z,77.85
2022-08-03T03:55:18.561Z,78.06
2022-08-03T03:57:47.017Z,78.26
2022-08-03T04:00:16.652Z,78.27
2022-08-03T04:02:45.800Z,78.40
2022-08-03T04:05:33.254Z,78.43
2022-08-03T04:08:27.411Z,78.49
2022-08-03T04:11:16.676Z,78.78
2022-08-03T04:13:50.636Z,78.73
2022-08-03T04:16:21.440Z,78.83
2022-08-03T04:18:54.169Z,79.12
2022-08-03T04:21:23.673Z,79.10
2022-08-03T04:23:55.380Z,79.25
2022-08-03T04:26:28.531Z,79.31
2022-08-03T04:28:58.714Z,79.28
2022-08-03T04:31:28.190Z,79.23
2022-08-03T04:33:57.048Z,79.07
2022-08-03T04:36:32.588Z,79.03
2022-08-03T04:39:04.123Z,78.96
2022-08-03T04:41:32.673Z,78.89
2022-08-03T04:44:23.746Z,78.77
2022-08-03T04:46:58.120Z,78.69
2022-08-03T04:49:26.984Z,78.62
2022-08-03T04:51:54.934Z,78.65
2022-08-03T04:54:22.758Z,78.51
2022-08-03T04:56:50.714Z,78.69
2022-08-03T04:59:18.424Z,78.45
2022-08-03T05:01:46.667Z,78.46
2022-08-03T05:04:17.041Z,78.55
2022-08-03T05:06:48.107Z,78.42
2022-08-03T05:09:49.848Z,78.42
2022-08-03T05:12:11.197Z,78.18
2022-08-03T05:14:39.677Z,78.13
2022-08-03T05:17:09.067Z,78.22
2022-08-03T05:19:36.892Z,78.37
2022-08-03T05:22:04.822Z,78.42
2022-08-03T05:24:32.669Z,78.00
2022-08-03T05:27:00.524Z,77.84
2022-08-03T05:29:28.268Z,77.84
2022-08-03T05:31:56.531Z,77.84
2022-08-03T05:34:24.498Z,77.71
2022-08-03T05:36:52.491Z,77.58
2022-08-03T05:39:20.410Z,77.68
2022-08-03T05:41:48.199Z,78.03
2022-08-03T05:44:16.329Z,77.80
2022-08-03T05:46:44.232Z,77.76
2022-08-03T05:49:12.168Z,77.34
2022-08-03T05:51:40.566Z,77.29
2022-08-03T05:54:08.345Z,77.25
2022-08-03T05:56:36.758Z,76.92
2022-08-03T05:59:28.693Z,76.97
2022-08-03T06:01:52.891Z,77.09
2022-08-03T06:04:21.180Z,77.17
2022-08-03T06:06:50.732Z,76.89
2022-08-03T06:09:20.573Z,76.55
2022-08-03T06:11:48.752Z,76.24
2022-08-03T06:14:16.549Z,75.98
2022-08-03T06:16:44.303Z,75.65
2022-08-03T06:19:12.396Z,75.16
2022-08-03T06:21:40.232Z,74.95
2022-08-03T06:24:08.812Z,75.38
2022-08-03T06:26:37.148Z,75.19
2022-08-03T06:29:04.961Z,75.24
2022-08-03T06:31:36.825Z,75.39
2022-08-03T06:34:32.275Z,75.02
2022-08-03T06:37:01.980Z,74.85
2022-08-03T06:39:30.625Z,74.83
2022-08-03T06:41:58.834Z,74.51
2022-08-03T06:44:26.836Z,74.35
2022-08-03T06:46:55.077Z,74.01
2022-08-03T06:49:23.117Z,73.60
2022-08-03T06:52:05.059Z,73.07
2022-08-03T06:54:35.751Z,72.73
2022-08-03T06:57:04.198Z,72.41
2022-08-03T07:00:10.938Z,72.14
2022-08-03T07:02:20.478Z,71.82
2022-08-03T07:04:49.256Z,71.78
2022-08-03T07:07:17.896Z,71.30
2022-08-03T07:09:57.677Z,71.07
2022-08-03T07:12:29.985Z,70.25
2022-08-03T07:15:01.778Z,69.57
2022-08-03T07:17:32.401Z,69.93
2022-08-03T07:20:03.950Z,70.47
2022-08-03T07:22:31.785Z,69.73
2022-08-03T07:24:59.716Z,70.04
2022-08-03T07:27:28.747Z,68.82
2022-08-03T07:30:07.468Z,68.72
2022-08-03T07:32:49.898Z,68.10
2022-08-03T07:35:24.916Z,67.19
2022-08-03T07:37:55.044Z,67.72
2022-08-03T07:40:23.363Z,67.95
2022-08-03T07:42:55.104Z,67.34
2022-08-03T07:45:24.069Z,66.91
2022-08-03T07:47:53.454Z,66.17
2022-08-03T07:50:24.553Z,66.27
2022-08-03T07:52:53.777Z,64.95
2022-08-03T07:55:25.599Z,63.76
2022-08-03T07:58:12.596Z,62.84
2022-08-03T08:00:40.605Z,61.78
2022-08-03T08:03:08.687Z,62.04
2022-08-03T08:05:39.448Z,61.79
2022-08-03T08:08:07.568Z,61.93
2022-08-03T08:10:37.437Z,61.77
2022-08-03T08:13:05.705Z,61.78
2022-08-03T08:15:33.802Z,61.86
2022-08-03T08:18:02.957Z,61.62
2022-08-03T08:20:38.010Z,61.63
2022-08-03T08:23:19.989Z,61.95
2022-08-03T08:25:56.988Z,61.34
2022-08-03T08:28:32.783Z,61.90
2022-08-03T08:31:11.066Z,61.60
2022-08-03T08:36:29.369Z,61.16
2022-08-03T08:38:57.811Z,60.51
2022-08-03T08:41:32.110Z,59.26
2022-08-03T08:44:01.688Z,57.90
2022-08-03T08:46:32.938Z,57.40
2022-08-03T08:49:04.833Z,57.11
2022-08-03T08:51:54.915Z,56.63
2022-08-03T08:54:27.090Z,56.88
2022-08-03T08:56:57.392Z,56.51
2022-08-03T08:59:49.309Z,55.86
2022-08-03T09:02:16.804Z,55.32
2022-08-03T09:04:54.114Z,55.93
2022-08-03T09:07:22.238Z,54.88
2022-08-03T09:10:10.026Z,54.19
2022-08-03T09:12:42.375Z,54.95
2022-08-03T09:15:24.612Z,55.50
2022-08-03T09:18:00.182Z,54.31
2022-08-03T09:20:32.775Z,54.01
2022-08-03T09:23:59.640Z,53.62
2022-08-03T09:26:01.867Z,53.04
2022-08-03T09:28:59.736Z,53.07
2022-08-03T09:31:52.249Z,52.75
2022-08-03T09:34:26.302Z,51.77
2022-08-03T09:36:55.928Z,51.19
2022-08-03T09:39:40.424Z,51.01
2022-08-03T09:42:17.412Z,50.47
2022-08-03T09:44:48.435Z,50.53
2022-08-03T09:47:28.830Z,49.89
2022-08-03T09:50:07.082Z,48.58
2022-08-03T09:52:49.881Z,48.63
2022-08-03T09:56:34.962Z,48.59
2022-08-03T09:58:11.683Z,48.95
2022-08-03T10:01:24.251Z,48.39
2022-08-03T10:04:04.220Z,47.47
2022-08-03T10:06:33.273Z,48.37
2022-08-03T10:09:12.876Z,47.17
2022-08-03T10:11:42.686Z,47.16
2022-08-03T10:14:19.484Z,47.12
2022-08-03T10:16:49.082Z,47.30
2022-08-03T10:19:17.457Z,47.69
2022-08-03T10:21:53.861Z,46.38
2022-08-03T10:24:27.283Z,45.69
2022-08-03T10:27:09.635Z,45.94
2022-08-03T10:29:42.454Z,45.39
2022-08-03T10:32:18.192Z,45.39
2022-08-03T10:34:50.389Z,45.69
2022-08-03T10:37:21.609Z,45.40
2022-08-03T10:39:57.506Z,45.62
2022-08-03T10:42:27.489Z,45.95
2022-08-03T10:45:04.644Z,46.03
2022-08-03T10:47:34.555Z,45.69
2022-08-03T10:50:04.087Z,45.40
2022-08-03T10:52:38.163Z,45.67
2022-08-03T10:55:54.029Z,44.97
2022-08-03T10:58:37.323Z,45.10
2022-08-03T11:01:07.571Z,45.69
2022-08-03T11:03:55.469Z,45.52
2022-08-03T11:06:37.219Z,44.95
2022-08-03T11:09:11.735Z,44.69
2022-08-03T11:11:45.253Z,44.46
2022-08-03T11:14:19.154Z,45.80
2022-08-03T11:16:50.175Z,45.71
2022-08-03T11:19:22.749Z,45.36
2022-08-03T11:21:56.859Z,45.58
2022-08-03T11:24:36.854Z,44.86
2022-08-03T11:27:27.362Z,45.27
2022-08-03T11:30:07.733Z,45.20
2022-08-03T11:32:46.713Z,44.57
2022-08-03T11:35:18.566Z,45.12
2022-08-03T11:38:04.395Z,44.61
2022-08-03T11:40:46.904Z,43.95
2022-08-03T11:43:31.261Z,44.48
2022-08-03T11:46:05.466Z,43.85
2022-08-03T11:48:45.138Z,43.63
2022-08-03T11:51:25.595Z,44.02
2022-08-03T11:53:59.452Z,44.71
2022-08-03T11:56:28.321Z,44.94
2022-08-03T11:59:18.875Z,43.95
2022-08-03T12:01:46.906Z,43.85
2022-08-03T12:04:16.491Z,43.77
2022-08-03T12:07:04.975Z,43.83
2022-08-03T12:09:36.253Z,43.42
2022-08-03T12:12:04.755Z,43.78
2022-08-03T12:14:49.496Z,43.62
2022-08-03T12:17:20.911Z,43.78
2022-08-03T12:19:49.445Z,44.04
2022-08-03T12:22:34.713Z,44.69
2022-08-03T12:25:03.310Z,44.33
2022-08-03T12:27:31.165Z,43.58
2022-08-03T12:30:01.638Z,43.53
2022-08-03T12:32:31.164Z,43.39
2022-08-03T12:35:01.557Z,44.03
2022-08-03T12:37:31.366Z,44.43
2022-08-03T12:40:09.429Z,44.34
2022-08-03T12:42:39.711Z,43.73
2022-08-03T12:45:28.036Z,43.31
2022-08-03T12:48:01.795Z,42.88
2022-08-03T12:50:34.772Z,43.58
2022-08-03T12:53:08.012Z,43.14
2022-08-03T12:55:56.971Z,44.49
2022-08-03T12:58:34.234Z,44.44
2022-08-03T13:01:09.940Z,42.68
2022-08-03T13:03:50.171Z,43.01
2022-08-03T13:06:26.008Z,43.57
2022-08-03T13:09:06.047Z,43.54
2022-08-03T13:11:57.293Z,43.41
2022-08-03T13:14:23.756Z,42.75
2022-08-03T13:16:51.536Z,43.27
2022-08-03T13:19:19.422Z,43.36
2022-08-03T13:22:03.354Z,43.72
2022-08-03T13:24:33.804Z,43.44
2022-08-03T13:28:01.233Z,43.58
2022-08-03T13:29:51.333Z,43.45
2022-08-03T13:32:22.348Z,43.14
2022-08-03T13:34:51.016Z,42.39
2022-08-03T13:37:19.161Z,43.12
2022-08-03T13:39:57.422Z,43.31
2022-08-03T13:42:34.704Z,44.01
2022-08-03T13:45:04.404Z,43.96
2022-08-03T13:47:32.796Z,43.32
2022-08-03T13:50:03.100Z,43.10
2022-08-03T13:52:32.844Z,42.83
2022-08-03T13:55:01.804Z,43.27
2022-08-03T13:58:02.560Z,43.83
2022-08-03T14:00:27.319Z,42.34
2022-08-03T14:03:12.818Z,42.53
2022-08-03T14:05:43.949Z,41.72
2022-08-03T14:08:12.791Z,42.17
2022-08-03T14:10:43.258Z,41.82
2022-08-03T14:13:16.804Z,42.66
2022-08-03T14:15:50.140Z,42.07
2022-08-03T14:18:28.365Z,41.22
2022-08-03T14:21:06.299Z,41.09
2022-08-03T14:23:41.892Z,41.41
2022-08-03T14:26:10.699Z,41.18
2022-08-03T14:28:38.626Z,41.73
2022-08-03T14:31:08.392Z,40.98
2022-08-03T14:33:54.889Z,40.77
2022-08-03T14:36:22.990Z,41.06
2022-08-03T14:38:51.083Z,41.38
2022-08-03T14:41:20.342Z,41.32
2022-08-03T14:44:01.234Z,41.41
2022-08-03T14:46:31.082Z,41.51
2022-08-03T14:50:31.972Z,41.05
2022-08-03T14:51:53.424Z,41.76
2022-08-03T14:54:22.974Z,42.42
2022-08-03T14:56:51.296Z,41.17
2022-08-03T14:59:19.090Z,41.61
2022-08-03T15:02:02.722Z,42.03
2022-08-03T15:04:35.014Z,41.74
2022-08-03T15:07:02.984Z,41.25
2022-08-03T15:09:31.070Z,41.61
2022-08-03T15:11:59.278Z,41.32
2022-08-03T15:14:28.420Z,40.89
2022-08-03T15:17:01.272Z,40.98
2022-08-03T15:20:01.365Z,41.01
2022-08-03T15:22:20.530Z,40.75
2022-08-03T15:24:52.753Z,40.50
2022-08-03T15:27:21.153Z,41.20
2022-08-03T15:30:08.094Z,41.01
2022-08-03T15:32:37.314Z,41.07
2022-08-03T15:35:05.429Z,41.13
2022-08-03T15:37:33.255Z,41.43
2022-08-03T15:40:01.482Z,41.95
2022-08-03T15:42:31.147Z,41.23
2022-08-03T15:44:59.581Z,41.25
2022-08-03T15:47:27.772Z,40.41
2022-08-03T15:49:55.771Z,40.52
2022-08-03T15:52:23.742Z,40.57
2022-08-03T15:54:54.295Z,39.88
2022-08-03T15:57:22.886Z,39.75
2022-08-03T15:59:51.014Z,39.92
2022-08-03T16:02:19.266Z,40.14
2022-08-03T16:04:47.111Z,40.84
2022-08-03T16:07:15.956Z,41.60
2022-08-03T16:09:44.334Z,41.70
2022-08-03T16:12:15.863Z,41.58
2022-08-03T16:15:15.831Z,41.09
2022-08-03T16:17:43.765Z,41.51
2022-08-03T16:20:30.738Z,40.75
2022-08-03T16:23:07.739Z,40.72
2022-08-03T16:25:40.108Z,40.84
2022-08-03T16:28:13.824Z,40.87
2022-08-03T16:30:43.780Z,41.20
2022-08-03T16:33:17.070Z,42.14
2022-08-03T16:35:46.577Z,42.54
2022-08-03T16:38:18.787Z,42.19
2022-08-03T16:40:52.007Z,42.08
2022-08-03T16:43:25.128Z,42.06
2022-08-03T16:45:53.139Z,41.99
2022-08-03T16:48:21.031Z,42.08
2022-08-03T16:50:49.241Z,42.11
2022-08-03T16:53:33.240Z,42.54
2022-08-03T16:56:09.862Z,43.84
2022-08-03T16:58:46.528Z,44.43
2022-08-03T17:01:21.805Z,45.03
2022-08-03T17:04:02.504Z,45.13
2022-08-03T17:06:37.384Z,45.68
2022-08-03T17:09:19.064Z,46.33
2022-08-03T17:11:50.534Z,47.30
2022-08-03T17:14:22.860Z,47.70
2022-08-03T17:17:01.591Z,47.74
2022-08-03T17:19:35.011Z,48.21
2022-08-03T17:22:11.191Z,48.98
2022-08-03T17:24:44.639Z,49.22
2022-08-03T17:27:23.193Z,50.09
2022-08-03T17:30:09.716Z,50.41
2022-08-03T17:32:42.859Z,50.94
2022-08-03T17:35:21.315Z,51.26
2022-08-03T17:37:58.075Z,51.90
2022-08-03T17:40:31.715Z,52.37
2022-08-03T17:43:01.216Z,52.85
2022-08-03T17:45:53.030Z,53.23
2022-08-03T17:48:25.121Z,53.73
2022-08-03T17:51:00.354Z,54.08
2022-08-03T17:53:31.751Z,54.29
2022-08-03T17:56:46.322Z,54.66
2022-08-03T17:59:51.035Z,55.37
2022-08-03T18:02:51.979Z,55.65
2022-08-03T18:05:22.143Z,56.21
2022-08-03T18:08:00.855Z,56.55
2022-08-03T18:10:49.922Z,56.86
2022-08-03T18:13:24.465Z,57.43
2022-08-03T18:15:59.011Z,57.90
2022-08-03T18:18:37.070Z,58.25
2022-08-03T18:21:09.283Z,58.55
2022-08-03T18:23:46.093Z,58.57
2022-08-03T18:26:20.655Z,58.84
2022-08-03T18:28:53.138Z,59.08
2022-08-03T18:31:59.422Z,59.57
2022-08-03T18:34:32.454Z,59.53
2022-08-03T18:37:07.431Z,59.88
2022-08-03T18:39:50.375Z,60.17
2022-08-03T18:42:26.375Z,60.29
2022-08-03T18:44:56.387Z,60.67
2022-08-03T18:47:52.515Z,60.86
2022-08-03T18:50:30.670Z,60.86
2022-08-03T18:54:01.826Z,61.37
2022-08-03T18:56:50.088Z,61.48
2022-08-03T18:59:56.168Z,61.66
2022-08-03T19:02:32.711Z,62.03
2022-08-03T19:05:08.990Z,62.39
2022-08-03T19:07:40.593Z,62.43
2022-08-03T19:10:16.288Z,62.95
2022-08-03T19:12:58.785Z,63.33
2022-08-03T19:15:36.848Z,63.21
2022-08-03T19:18:12.007Z,63.35
2022-08-03T19:20:46.637Z,63.70
2022-08-03T19:23:16.441Z,63.88
2022-08-03T19:25:45.756Z,64.16
2022-08-03T19:28:17.115Z,64.60
2022-08-03T19:30:53.709Z,64.81
2022-08-03T19:33:24.567Z,64.92
2022-08-03T19:35:57.015Z,64.85
2022-08-03T19:38:28.983Z,65.25
2022-08-03T19:41:01.630Z,65.47
2022-08-03T19:43:49.436Z,65.21
2022-08-03T19:46:30.678Z,65.67
2022-08-03T19:49:20.277Z,65.72
2022-08-03T19:52:02.346Z,65.65
2022-08-03T19:54:45.829Z,65.97
2022-08-03T19:57:25.420Z,66.14
2022-08-03T19:59:56.229Z,66.23
2022-08-03T20:02:26.597Z,66.57
2022-08-03T20:04:57.633Z,66.61
2022-08-03T20:07:31.454Z,66.69
2022-08-03T20:10:02.004Z,66.96
2022-08-03T20:12:34.379Z,67.16
2022-08-03T20:15:12.046Z,67.19
2022-08-03T20:17:56.989Z,67.41
2022-08-03T20:20:31.510Z,67.50
2022-08-03T20:23:11.445Z,67.47
2022-08-03T20:25:48.839Z,67.70
2022-08-03T20:28:50.519Z,67.86
2022-08-03T20:31:36.295Z,68.17
2022-08-03T20:34:07.047Z,68.20
2022-08-03T20:36:38.151Z,68.54
2022-08-03T20:39:07.792Z,68.71
2022-08-03T20:41:36.160Z,68.56
2022-08-03T20:44:08.911Z,68.73
2022-08-03T20:46:53.102Z,68.91
2022-08-03T20:49:25.616Z,68.92
2022-08-03T20:51:54.578Z,69.14
2022-08-03T20:54:29.946Z,69.36
2022-08-03T20:57:04.488Z,69.30
2022-08-03T20:59:50.433Z,69.50
2022-08-03T21:02:30.019Z,69.50
2022-08-03T21:05:03.219Z,69.74
2022-08-03T21:08:05.369Z,69.85
2022-08-03T21:10:38.876Z,69.92
2022-08-03T21:13:17.822Z,70.01
2022-08-03T21:16:12.454Z,70.23
2022-08-03T21:18:49.911Z,70.05
2022-08-03T21:21:20.150Z,70.47
2022-08-03T21:23:54.442Z,70.40
2022-08-03T21:26:24.944Z,70.61
2022-08-03T21:28:57.129Z,70.64
2022-08-03T21:31:26.764Z,70.75
2022-08-03T21:34:03.714Z,70.89
2022-08-03T21:36:35.688Z,71.02
2022-08-03T21:39:06.325Z,70.94
2022-08-03T21:41:47.081Z,70.97
2022-08-03T21:44:29.052Z,70.95
2022-08-03T21:46:59.082Z,70.95
2022-08-03T21:50:07.021Z,70.91
2022-08-03T21:52:21.689Z,70.90
2022-08-03T21:54:54.272Z,70.87
2022-08-03T21:57:24.984Z,70.97
2022-08-03T22:00:05.614Z,70.83
2022-08-03T22:02:58.229Z,70.85
2022-08-03T22:05:28.934Z,70.79
2022-08-03T22:08:13.594Z,70.89
2022-08-03T22:10:44.483Z,70.69
2022-08-03T22:13:21.920Z,70.71
2022-08-03T22:16:06.069Z,70.60
2022-08-03T22:18:42.366Z,70.32
2022-08-03T22:21:13.703Z,69.97
2022-08-03T22:23:45.515Z,69.95
2022-08-03T22:26:32.444Z,69.62
2022-08-03T22:29:07.529Z,69.30
2022-08-03T22:31:58.258Z,68.98
2022-08-03T22:34:27.227Z,68.62
2022-08-03T22:37:00.970Z,68.54
2022-08-03T22:39:30.083Z,68.30
2022-08-03T22:42:01.449Z,68.18
2022-08-03T22:44:29.724Z,67.70
2022-08-03T22:46:58.487Z,67.63
2022-08-03T22:49:28.473Z,67.19
2022-08-03T22:51:57.255Z,67.05
2022-08-03T22:54:25.549Z,66.92
2022-08-03T22:56:53.619Z,66.70
2022-08-03T22:59:40.633Z,66.25
2022-08-03T23:02:21.342Z,66.20
2022-08-03T23:04:55.657Z,65.96
2022-08-03T23:10:25.006Z,65.56
2022-08-03T23:12:54.566Z,65.17
2022-08-03T23:15:29.392Z,65.03
2022-08-03T23:17:58.677Z,64.83
2022-08-03T23:20:27.086Z,64.53
2022-08-03T23:22:59.871Z,64.33
2022-08-03T23:25:28.681Z,64.22
2022-08-03T23:28:05.173Z,63.91
2022-08-03T23:30:37.490Z,63.96
2022-08-03T23:33:06.823Z,63.91
2022-08-03T23:36:27.677Z,63.75
2022-08-03T23:38:43.675Z,63.71
2022-08-03T23:41:12.864Z,63.77
2022-08-03T23:43:52.421Z,63.87
2022-08-03T23:46:22.887Z,63.87
2022-08-03T23:48:51.278Z,63.87
2022-08-03T23:51:26.134Z,63.92
2022-08-03T23:54:08.792Z,63.93
2022-08-03T23:56:51.605Z,64.05
2022-08-03T23:59:59.380Z,64.03
